Spring Lake, North Carolina
Current Conditions -  °F | °C
As of 4:58 AM on Saturday 01 Nov 2014 (Local Time) from KPOB Reporting Station
Overcast Overcast  
Wind Chill: 43°   Ceiling: 3900
Heat Index: 48°   Visibility: 10mi
Dew Point: 46°   Wind: 9mph
Humidity: 95%   Direction: 60°ENE
Pressure: 29.69"   Gusts: NA
Location:  35.17°N, 78.97°W
Report Text: KPOB 010858Z AUTO 06008KT 10SM OVC039 09/08 A2969 RMK AO2 RAE0801DZB0801E0812 SLP057 P0001 60013 T00870080 58020
Loading
Personal Weather Stations






























Interactive Weather Map
Tropical Storm Tracking
New forecast layout! Learn more

10-Day Weather Forecast

Advertisements
Track Severe Weather on mobile